Time;durP1;ratioP1;P1;durP2;ratioP2;P2;SDS_P1;SDS_P2;PMS_P1;PMS_P2;Temp;Humidity;BMP_temperature;BMP_pressure;BME280_temperature;BME280_humidity;BME280_pressure;Samples;Min_cycle;Max_cycle;Signal;HPM_P1;HPM_P2
2022/08/10 00:06:57;;;;;;;0.85;0.35;;;31.10;39.50;;;;;;20788022;28;20037;-71
2022/08/10 00:16:57;;;;;;;1.23;0.40;;;31.10;39.50;;;;;;20820231;28;20045;-72
2022/08/10 00:26:58;;;;;;;0.40;0.40;;;31.10;39.50;;;;;;20831289;28;20120;-71
2022/08/10 00:36:59;;;;;;;0.60;0.40;;;31.00;39.50;;;;;;20819682;28;20052;-74
2022/08/10 00:46:59;;;;;;;0.75;0.50;;;31.10;39.60;;;;;;20818605;28;20124;-72
2022/08/10 00:57:00;;;;;;;1.30;0.40;;;31.00;39.50;;;;;;20817818;28;20113;-71
2022/08/10 01:17:28;;;;;;;1.17;0.55;;;31.00;39.60;;;;;;21000936;22;20423;-71
2022/08/10 01:27:54;;;;;;;0.52;0.43;;;31.00;39.60;;;;;;20900397;28;20071;-73
2022/08/10 01:38:03;;;;;;;0.50;0.50;;;31.00;39.60;;;;;;20865384;28;20028;-71
2022/08/10 01:58:23;;;;;;;0.85;0.50;;;30.90;39.60;;;;;;20900688;28;20032;-71
2022/08/10 02:08:24;;;;;;;0.90;0.50;;;30.90;39.60;;;;;;20880444;28;20497;-72
2022/08/10 02:18:24;;;;;;;0.90;0.60;;;30.90;39.60;;;;;;20896539;28;20120;-71
2022/08/10 02:28:27;;;;;;;0.80;0.70;;;30.90;39.60;;;;;;20895230;28;20112;-72
2022/08/10 02:38:32;;;;;;;1.05;0.60;;;30.90;39.60;;;;;;20877761;28;20036;-71
2022/08/10 02:48:38;;;;;;;0.88;0.77;;;30.80;39.60;;;;;;20876816;28;20407;-71
2022/08/10 02:58:41;;;;;;;1.90;0.45;;;30.80;39.50;;;;;;20893960;28;20045;-72
2022/08/10 03:08:43;;;;;;;1.05;0.68;;;30.80;39.50;;;;;;20892618;28;20134;-71
2022/08/10 03:18:43;;;;;;;1.63;0.82;;;30.80;39.60;;;;;;20875003;28;20090;-72
2022/08/10 03:28:44;;;;;;;1.17;0.60;;;30.80;39.60;;;;;;20890726;28;20792;-71
2022/08/10 03:38:47;;;;;;;1.00;0.65;;;30.70;39.50;;;;;;20891341;28;20090;-71
2022/08/10 03:48:49;;;;;;;;;;;30.70;39.50;;;;;;20873226;28;20388;-72
2022/08/10 03:58:49;;;;;;;1.75;0.77;;;30.70;39.50;;;;;;20855261;28;19913;-71
2022/08/10 04:08:50;;;;;;;1.30;0.75;;;30.70;39.60;;;;;;20871195;28;20043;-73
2022/08/10 04:18:50;;;;;;;1.65;0.63;;;30.70;39.60;;;;;;20872046;28;20163;-71
2022/08/10 04:28:51;;;;;;;0.70;0.65;;;30.70;39.50;;;;;;20887302;28;20033;-72
2022/08/10 04:38:52;;;;;;;1.02;0.60;;;30.60;39.50;;;;;;20886663;28;20118;-71
2022/08/10 04:48:52;;;;;;;3.75;0.80;;;30.60;39.40;;;;;;20887276;28;20132;-71
2022/08/10 04:58:53;;;;;;;1.02;0.70;;;30.60;39.40;;;;;;20869757;28;20197;-71
2022/08/10 05:08:53;;;;;;;0.70;0.70;;;30.60;39.40;;;;;;20888314;28;20118;-73
2022/08/10 05:18:54;;;;;;;1.02;0.70;;;30.60;39.40;;;;;;20884869;28;20033;-71
2022/08/10 05:28:54;;;;;;;1.60;0.90;;;30.60;39.40;;;;;;20900003;28;20044;-71
2022/08/10 05:38:55;;;;;;;1.17;0.73;;;30.60;39.30;;;;;;20899667;28;20079;-71
2022/08/10 05:48:56;;;;;;;1.17;0.70;;;30.60;39.30;;;;;;20882685;28;20128;-71
2022/08/10 05:58:56;;;;;;;1.30;0.70;;;30.60;39.40;;;;;;20898666;28;20083;-71
2022/08/10 06:08:58;;;;;;;0.63;0.53;;;30.50;39.40;;;;;;20865034;28;20133;-71
2022/08/10 06:18:58;;;;;;;1.00;0.65;;;30.60;39.40;;;;;;20879260;28;20345;-72
2022/08/10 06:29:06;;;;;;;1.63;0.80;;;30.60;39.40;;;;;;20878689;28;20037;-71
2022/08/10 06:39:07;;;;;;;1.48;0.80;;;30.60;39.40;;;;;;20862251;28;20075;-71
2022/08/10 06:49:08;;;;;;;2.13;0.90;;;30.60;39.50;;;;;;20893975;28;20483;-70
2022/08/10 06:59:28;;;;;;;1.23;0.60;;;30.60;39.50;;;;;;20893690;28;20151;-73
2022/08/10 07:09:28;;;;;;;1.10;0.93;;;30.50;39.50;;;;;;20860108;28;20041;-72
2022/08/10 07:19:30;;;;;;;2.00;0.77;;;30.50;39.60;;;;;;20875113;28;20051;-72
2022/08/10 07:29:30;;;;;;;1.85;0.80;;;30.50;39.80;;;;;;20873884;28;20043;-71
2022/08/10 07:39:34;;;;;;;0.60;0.50;;;30.50;39.80;;;;;;20872579;28;20395;-72
2022/08/10 07:49:36;;;;;;;0.50;0.50;;;30.50;39.90;;;;;;20889089;28;20091;-71
2022/08/10 07:59:47;;;;;;;1.35;0.75;;;30.60;40.00;;;;;;20890678;28;20029;-71
2022/08/10 08:09:47;;;;;;;1.00;0.80;;;30.60;39.90;;;;;;20870406;28;20124;-73
2022/08/10 08:19:49;;;;;;;1.75;0.70;;;30.70;39.90;;;;;;20887633;28;20039;-71
2022/08/10 08:29:50;;;;;;;0.57;0.52;;;30.70;39.90;;;;;;20871306;28;20368;-71
2022/08/10 08:39:50;;;;;;;0.70;0.55;;;30.70;39.90;;;;;;20870945;28;20115;-71
2022/08/10 08:50:14;;;;;;;1.17;0.77;;;30.60;40.00;;;;;;20867747;28;20029;-71
2022/08/10 09:00:36;;;;;;;0.77;0.60;;;30.60;40.10;;;;;;20886084;28;20494;-71
2022/08/10 09:11:11;;;;;;;0.60;0.60;;;30.50;40.20;;;;;;20885265;28;20063;-71
2022/08/10 09:21:26;;;;;;;0.80;0.60;;;30.50;40.30;;;;;;20867022;28;20049;-71
2022/08/10 09:31:29;;;;;;;1.00;0.80;;;30.50;40.40;;;;;;20900414;28;20184;-70
2022/08/10 09:41:49;;;;;;;;;;;30.40;41.00;;;;;;20883644;28;20471;-70
2022/08/10 09:51:56;;;;;;;0.82;0.70;;;30.50;40.40;;;;;;20898507;28;20440;-70
2022/08/10 10:02:27;;;;;;;0.93;0.50;;;30.60;40.40;;;;;;20880460;28;20142;-70
2022/08/10 10:12:49;;;;;;;0.77;0.60;;;30.60;40.10;;;;;;20896559;28;20130;-71
2022/08/10 10:23:00;;;;;;;0.30;0.30;;;30.70;40.00;;;;;;20880157;28;20024;-73
2022/08/10 10:33:15;;;;;;;0.68;0.40;;;30.80;39.90;;;;;;20879722;28;20140;-72
2022/08/10 10:43:51;;;;;;;0.75;0.70;;;31.00;39.80;;;;;;20861820;28;20064;-72
2022/08/10 10:54:26;;;;;;;0.70;0.47;;;31.00;39.60;;;;;;20911611;28;20029;-72
2022/08/10 11:04:34;;;;;;;0.77;0.50;;;31.10;39.50;;;;;;20878633;28;20163;-73
2022/08/10 11:14:51;;;;;;;0.60;0.60;;;31.30;39.30;;;;;;20876130;28;20452;-71
2022/08/10 11:25:26;;;;;;;1.08;0.43;;;31.40;39.10;;;;;;20858275;28;20021;-72
2022/08/10 11:35:39;;;;;;;0.40;0.40;;;31.50;38.90;;;;;;20876164;28;20044;-72
2022/08/10 11:45:45;;;;;;;0.65;0.60;;;31.50;38.90;;;;;;20874132;28;20036;-72
2022/08/10 11:55:51;;;;;;;0.75;0.60;;;31.50;38.90;;;;;;20872498;28;20131;-72
2022/08/10 12:05:52;;;;;;;2.00;0.65;;;31.50;39.00;;;;;;20871422;28;20033;-72
2022/08/10 12:16:02;;;;;;;2.92;0.70;;;31.40;39.00;;;;;;20887379;28;20568;-73
2022/08/10 12:26:14;;;;;;;0.30;0.30;;;31.40;39.00;;;;;;20870939;28;20033;-71
2022/08/10 12:36:20;;;;;;;0.43;0.38;;;31.40;38.90;;;;;;20870696;28;20037;-73
2022/08/10 12:46:32;;;;;;;0.73;0.50;;;31.50;38.90;;;;;;20870082;28;20033;-71
2022/08/10 12:56:35;;;;;;;1.33;0.65;;;31.60;38.70;;;;;;20886401;28;20029;-72
2022/08/10 13:06:40;;;;;;;1.33;0.77;;;31.70;38.40;;;;;;20885916;28;20456;-72
2022/08/10 13:16:41;;;;;;;0.40;0.40;;;31.80;38.20;;;;;;20885610;28;20033;-72
2022/08/10 13:26:55;;;;;;;0.57;0.55;;;31.90;38.20;;;;;;20853398;28;20527;-72
2022/08/10 13:36:57;;;;;;;0.35;0.30;;;32.00;38.10;;;;;;20881112;28;20033;-72
2022/08/10 13:46:58;;;;;;;0.52;0.40;;;32.00;38.10;;;;;;20882352;28;20044;-72
2022/08/10 13:56:58;;;;;;;0.53;0.37;;;32.10;38.10;;;;;;20881578;28;20047;-72
2022/08/10 14:06:59;;;;;;;0.25;0.25;;;32.20;38.00;;;;;;20897668;28;20133;-74
2022/08/10 14:17:00;;;;;;;0.43;0.43;;;32.30;38.00;;;;;;20880012;28;20390;-72
2022/08/10 14:27:04;;;;;;;0.60;0.40;;;32.30;37.90;;;;;;20897028;28;20032;-76
2022/08/10 14:37:07;;;;;;;0.52;0.30;;;32.30;38.00;;;;;;20878938;28;20056;-72
2022/08/10 14:47:08;;;;;;;0.75;0.65;;;32.40;38.10;;;;;;20877234;28;20045;-74
2022/08/10 14:57:09;;;;;;;0.22;0.20;;;32.40;38.20;;;;;;20893288;28;20033;-73
2022/08/10 15:07:16;;;;;;;0.45;0.35;;;32.30;38.20;;;;;;20875588;28;20041;-72
2022/08/10 15:17:26;;;;;;;0.82;0.38;;;32.30;38.40;;;;;;20874236;28;20051;-71
2022/08/10 15:27:27;;;;;;;0.50;0.40;;;32.20;38.50;;;;;;20874763;28;20037;-73
2022/08/10 15:37:28;;;;;;;0.40;0.25;;;32.30;38.60;;;;;;20873703;28;20033;-72
2022/08/10 15:47:39;;;;;;;0.40;0.30;;;32.20;39.30;;;;;;20873109;28;20499;-75
2022/08/10 15:57:43;;;;;;;0.43;0.28;;;32.20;38.80;;;;;;20872336;28;20028;-72
2022/08/10 16:07:46;;;;;;;0.40;0.32;;;32.20;38.90;;;;;;20872118;28;20098;-74
2022/08/10 16:17:49;;;;;;;0.30;0.30;;;32.10;39.00;;;;;;20871455;28;20040;-71
2022/08/10 16:27:50;;;;;;;0.30;0.30;;;32.00;39.10;;;;;;20870998;28;20440;-72
2022/08/10 16:37:50;;;;;;;0.43;0.30;;;32.00;39.20;;;;;;20872560;28;20123;-72
2022/08/10 16:47:52;;;;;;;0.30;0.25;;;31.90;39.40;;;;;;20870374;28;20048;-72
2022/08/10 16:57:53;;;;;;;0.55;0.40;;;31.80;39.50;;;;;;20870543;28;20032;-74
2022/08/10 17:08:08;;;;;;;0.20;0.20;;;31.80;39.70;;;;;;20877788;28;20118;-72
2022/08/10 17:18:10;;;;;;;0.50;0.20;;;31.80;39.90;;;;;;20900837;28;20103;-71
2022/08/10 17:28:11;;;;;;;0.50;0.30;;;31.70;39.90;;;;;;20900133;28;20387;-71
2022/08/10 17:38:20;;;;;;;0.40;0.30;;;31.60;40.00;;;;;;20883986;28;20025;-72
2022/08/10 17:48:32;;;;;;;0.38;0.38;;;31.60;40.10;;;;;;20882614;28;20048;-72
2022/08/10 17:58:33;;;;;;;1.17;0.30;;;31.60;40.20;;;;;;20898570;28;20041;-71
2022/08/10 18:08:47;;;;;;;0.95;0.40;;;31.50;40.20;;;;;;20897431;28;20071;-71
2022/08/10 18:18:48;;;;;;;0.40;0.30;;;31.50;40.30;;;;;;20879662;28;20098;-72
2022/08/10 18:28:53;;;;;;;0.37;0.27;;;31.40;40.40;;;;;;20895775;28;20045;-75
2022/08/10 18:38:54;;;;;;;0.40;0.30;;;31.40;40.50;;;;;;20878715;28;20376;-72
2022/08/10 18:49:03;;;;;;;0.52;0.38;;;31.30;40.60;;;;;;20877484;28;20106;-73
2022/08/10 18:59:14;;;;;;;0.35;0.35;;;31.30;40.50;;;;;;20877055;28;20037;-72
2022/08/10 19:09:21;;;;;;;0.73;0.45;;;31.30;40.60;;;;;;20876352;28;20103;-71
2022/08/10 19:19:33;;;;;;;2.05;0.47;;;31.30;40.50;;;;;;20875259;28;20033;-71
2022/08/10 19:30:01;;;;;;;0.38;0.35;;;31.30;40.50;;;;;;20890020;28;20123;-72
2022/08/10 19:40:08;;;;;;;0.65;0.30;;;31.30;40.50;;;;;;20873410;28;20395;-72
2022/08/10 19:50:18;;;;;;;0.30;0.22;;;31.30;40.40;;;;;;20873318;28;20052;-74
2022/08/10 20:00:19;;;;;;;0.40;0.40;;;31.30;40.40;;;;;;20871744;28;20085;-71
2022/08/10 20:10:48;;;;;;;0.50;0.35;;;31.30;40.30;;;;;;20887730;28;20068;-74
2022/08/10 20:21:01;;;;;;;0.50;0.40;;;31.30;40.30;;;;;;20887283;28;20032;-70
2022/08/10 20:31:13;;;;;;;0.40;0.30;;;31.30;40.30;;;;;;20869944;28;20119;-72
2022/08/10 20:41:27;;;;;;;0.40;0.40;;;31.30;40.20;;;;;;20875928;28;20041;-72
2022/08/10 20:51:39;;;;;;;1.27;0.30;;;31.30;40.20;;;;;;20885072;28;20037;-72
2022/08/10 21:02:15;;;;;;;3.63;0.55;;;31.30;40.20;;;;;;20886056;28;20438;-72
2022/08/10 21:12:36;;;;;;;0.60;0.40;;;31.30;40.10;;;;;;20905060;28;20081;-72
2022/08/10 21:22:39;;;;;;;0.47;0.30;;;31.30;40.10;;;;;;20883841;28;20037;-72
2022/08/10 23:07:16;;;;;;;1.23;0.70;;;31.30;39.80;;;;;;20896413;28;20037;-72
2022/08/10 23:27:38;;;;;;;1.88;0.50;;;31.30;39.70;;;;;;20895143;28;20036;-72
2022/08/10 23:37:39;;;;;;;0.50;0.40;;;31.30;39.70;;;;;;20874288;28;20491;-73
2022/08/10 23:47:47;;;;;;;0.65;0.47;;;31.30;39.70;;;;;;20873356;28;20136;-72
2022/08/10 23:57:47;;;;;;;1.30;0.52;;;31.30;39.70;;;;;;20873003;28;20477;-76
